European Causeway — C6RG7 — position and weather

sailwx.info

Track history (hours):
 
Tides and Currents Weather Stations Pressure Air Temp Water Temp Dewpoint Dewpoint Depression Visibility Wind Speed Wind Dir Waves Ship Positions

European Causeway

Operator: P & O Irish Sea

Last reported at 2016-May-30 19:33 UTC. Time now 2016-May-30 20:25 UTC.
Position N 55°00' W 005°16'.

Length 165 m; draft 5.5 m.

Type: Passenger vessel. MMSI: 311027000.

Date/timePositionNaut miles runAvg speedWind from/ knotsBaromVisibWave heightAir tempDewpointWater temp
2016-May-30 19:33N 55°00' W 005°16'9 8.9
2016-May-30 18:33N 54°58' W 005°01'0 0.0
2016-May-30 17:34N 54°58' W 005°01'1212.4
2016-May-30 16:33N 54°58' W 005°23'1616.0
2016-May-30 15:33N 54°51' W 005°48'0 0.0
2016-May-30 14:33N 54°51' W 005°48'1211.9
2016-May-30 13:34N 54°57' W 005°30'1515.1
2016-May-30 12:33N 54°60' W 005°04'3 2.6
2016-May-30 11:34N 54°58' W 005°01'1110.7
2016-May-30 10:33N 54°59' W 005°20'1817.7
2016-May-30 09:33N 54°51' W 005°48'0 0.4
2016-May-30 08:32N 54°51' W 005°48'1211.8
2016-May-30 07:33N 54°57' W 005°30'1515.4
2016-May-30 06:33N 55°01' W 005°04'4 3.5
2016-May-30 05:31N 54°58' W 005°01'5 4.9
2016-May-30 04:29N 55°02' W 005°07'1617.0
2016-May-30 03:33N 54°55' W 005°32'1010.2
2016-May-30 02:34N 54°51' W 005°48'0 0.0
2016-May-30 01:33N 54°51' W 005°48'0 0.0
2016-May-30 00:33N 54°51' W 005°48'7 7.1
2016-May-29 23:34N 54°55' W 005°37'2019.9
2016-May-29 22:33N 55°00' W 005°04'3 3.1
2016-May-29 21:33N 54°58' W 005°01'1313.3
2016-May-29 20:33N 54°58' W 005°24'1515.0
2016-May-29 19:33N 54°51' W 005°48'0 0.0
2016-May-29 18:33N 54°51' W 005°48'9 9.3
2016-May-29 17:33N 54°42' W 005°44'7 7.2
2016-May-29 16:34N 54°37' W 005°54'0 0.0
2016-May-29 15:34N 54°37' W 005°54'0 0.0
2016-May-29 14:31N 54°37' W 005°54'0 0.0
2016-May-29 11:19N 54°37' W 005°54'0 0.0
2016-May-29 10:19N 54°37' W 005°54'0 0.0
2016-May-29 09:33N 54°37' W 005°54'0 0.0
2016-May-29 08:33N 54°37' W 005°54'0 0.0
2016-May-29 07:33N 54°37' W 005°54'0 0.0
2016-May-29 00:33N 54°37' W 005°54'0 0.0
2016-May-28 23:33N 54°37' W 005°54'0 0.0
2016-May-28 22:33N 54°37' W 005°54'0 0.0
2016-May-28 21:33N 54°37' W 005°54'0 0.0
2016-May-28 20:33N 54°37' W 005°54'0 0.0
2016-May-28 19:33N 54°37' W 005°54'0 0.0
2016-May-28 18:08N 54°37' W 005°54'0 0.0
2016-May-28 17:30N 54°37' W 005°54'0 0.0
2016-May-28 16:28N 54°37' W 005°54'0 0.0
2016-May-28 15:33N 54°37' W 005°54'0 0.0
2016-May-28 14:32N 54°37' W 005°54'0 0.0
2016-May-28 13:33N 54°37' W 005°54'0 0.0
2016-May-28 12:17N 54°37' W 005°54'0 0.0
2016-May-28 11:30N 54°37' W 005°54'0 0.0
2016-May-28 10:30N 54°37' W 005°54'0 0.0
2016-May-28 09:30N 54°37' W 005°54'0 0.0
2016-May-28 08:32N 54°37' W 005°54'0 0.0
2016-May-28 07:33N 54°37' W 005°54'1212.0
2016-May-28 06:34N 54°46' W 005°39'7 7.3
2016-May-28 05:34N 54°51' W 005°48'5 4.7
2016-May-28 04:34N 54°53' W 005°41'2020.0
2016-May-28 03:33N 55°01' W 005°09'6 6.0
2016-May-28 02:34N 54°58' W 005°01'0 0.0
2016-May-28 01:33N 54°58' W 005°01'6 6.0
2016-May-28 00:33N 55°01' W 005°09'2019.5
2016-May-27 23:33N 54°53' W 005°40'5 5.0
2016-May-27 22:34N 54°51' W 005°48'0 0.0
2016-May-27 21:34N 54°51' W 005°48'4 4.0
2016-May-27 20:34N 54°53' W 005°42'1817.5
2016-May-27 19:33N 55°00' W 005°14'8 7.4
2016-May-27 18:29N 54°58' W 005°01'0 0.0
2016-May-27 17:33N 54°58' W 005°01'1111.2
2016-May-27 16:34N 54°58' W 005°20'1717.1
2016-May-27 15:33N 54°51' W 005°48'0 0.4
2016-May-27 14:34N 54°51' W 005°48'1716.6
2016-May-27 13:34N 54°59' W 005°22'1211.2
2016-May-27 12:28N 54°58' W 005°01'0 0.0
2016-May-27 11:31N 54°58' W 005°01'9 9.7
2016-May-27 10:33N 54°59' W 005°17'1818.3
2016-May-27 09:33N 54°52' W 005°47'1 1.2
2016-May-27 08:33N 54°51' W 005°48'1413.7
2016-May-27 07:33N 54°58' W 005°27'1514.3
2016-May-27 06:30N 54°58' W 005°01'0 0.0
2016-May-27 05:33N 54°58' W 005°01'5 4.9
2016-May-27 04:34N 55°01' W 005°06'1818.0
2016-May-27 03:33N 54°54' W 005°35'8 8.0
2016-May-27 02:33N 54°51' W 005°48'0 0.0
2016-May-27 01:33N 54°51' W 005°48'5 4.8
2016-May-27 00:33N 54°54' W 005°41'1717.0
2016-May-26 23:33N 55°01' W 005°14'8 7.8
2016-May-26 22:31N 54°58' W 005°01'5 2.5
2016-May-26 20:29N 55°01' W 005°07'1718.7
2016-May-26 19:33N 54°54' W 005°34'8 7.9
2016-May-26 18:30N 54°51' W 005°48'0 0.0
2016-May-26 17:34N 54°51' W 005°48'1514.8
2016-May-26 16:33N 54°58' W 005°25'1413.9
2016-May-26 15:33N 54°58' W 005°01'0 0.0
2016-May-26 14:33N 54°58' W 005°01'1212.1
2016-May-26 13:34N 54°58' W 005°22'1716.5
2016-May-26 12:33N 54°51' W 005°48'0 0.0
2016-May-26 11:33N 54°51' W 005°48'1515.1
2016-May-26 10:33N 54°58' W 005°25'1413.4
2016-May-26 09:33N 54°58' W 005°01'0 0.0
2016-May-26 08:33N 54°58' W 005°01'1110.6
2016-May-26 07:34N 54°58' W 005°19'1817.3
2016-May-26 06:32N 54°51' W 005°48'1 0.7
2016-May-26 05:32N 54°51' W 005°48'6 6.3
2016-May-26 04:33N 54°54' W 005°39'2019.7
2016-May-26 03:33N 55°02' W 005°07'5 4.9
2016-May-26 02:30N 54°58' W 005°01'0 0.0
2016-May-26 01:33N 54°58' W 005°01'6 5.9
2016-May-26 00:34N 55°02' W 005°09'1616.1
2016-May-25 23:34N 54°55' W 005°34'9 8.6
2016-May-25 22:32N 54°51' W 005°48'0 0.0
2016-May-25 21:32N 54°51' W 005°48'4 4.2
2016-May-25 20:33N 54°53' W 005°42'1616.3
2016-May-25 19:33N 55°01' W 005°17'9 8.8
2016-May-25 18:29N 54°58' W 005°01'0 0.0
2016-May-25 17:34N 54°58' W 005°01'1010.3
2016-May-25 16:33N 54°58' W 005°19'1817.8
2016-May-25 15:33N 54°52' W 005°47'1 0.9
2016-May-25 14:33N 54°51' W 005°48'1312.6
2016-May-25 13:33N 54°57' W 005°29'1515.1
2016-May-25 12:33N 54°59' W 005°02'1 1.4
2016-May-25 11:33N 54°58' W 005°01'1010.0
2016-May-25 10:33N 54°59' W 005°18'1717.0
2016-May-25 09:33N 54°52' W 005°46'2 1.8
2016-May-25 08:32N 54°51' W 005°48'1212.7
2016-May-25 07:33N 54°57' W 005°29'1514.5
2016-May-25 06:31N 54°59' W 005°03'2 1.6
2016-May-25 05:31N 54°58' W 005°01'5 5.4
2016-May-25 04:30N 55°02' W 005°08'1717.9
2016-May-25 03:34N 54°54' W 005°34'8 8.2
2016-May-25 02:31N 54°51' W 005°48'0 0.0
2016-May-25 01:28N 54°51' W 005°48'4 4.7
2016-May-25 00:33N 54°53' W 005°42'1616.4
2016-May-24 23:33N 55°00' W 005°16'9 9.0
2016-May-24 22:33N 54°58' W 005°01'5 2.4
2016-May-24 20:31N 55°02' W 005°06'1819.2
2016-May-24 19:33N 54°54' W 005°35'8 7.7
2016-May-24 18:33N 54°51' W 005°48'0 0.0
2016-May-24 17:33N 54°51' W 005°48'1414.3
2016-May-24 16:33N 54°58' W 005°26'1414.3
2016-May-24 15:33N 54°58' W 005°01'0 0.1
2016-May-24 14:33N 54°58' W 005°01'1111.0
2016-May-24 13:33N 54°58' W 005°20'1717.3
2016-May-24 12:33N 54°51' W 005°48'1 0.5
2016-May-24 11:34N 54°51' W 005°48'1312.5
2016-May-24 10:33N 54°57' W 005°29'1514.8
2016-May-24 09:32N 54°59' W 005°03'2 1.7
2016-May-24 08:33N 54°58' W 005°01'10 9.8
2016-May-24 07:33N 54°58' W 005°18'1818.1
2016-May-24 06:33N 54°52' W 005°47'1 1.0
2016-May-24 05:32N 54°51' W 005°48'6 5.6
2016-May-24 04:34N 54°54' W 005°40'1818.0
2016-May-24 03:33N 55°01' W 005°11'7 6.8
2016-May-24 02:31N 54°58' W 005°01'0 0.0
2016-May-24 01:28N 54°58' W 005°01'5 5.8
2016-May-24 00:33N 55°02' W 005°07'1817.5
2016-May-23 23:33N 54°54' W 005°35'8 8.0
2016-May-23 22:32N 54°51' W 005°48'0 0.0
2016-May-23 21:29N 54°51' W 005°48'4 4.7
2016-May-23 20:33N 54°54' W 005°42'1716.8
2016-May-23 19:33N 55°00' W 005°16'9 8.8
2016-May-23 18:34N 54°58' W 005°01'0 0.0
2016-May-23 17:33N 54°58' W 005°01'10 9.8
2016-May-23 16:33N 54°59' W 005°18'1918.7
2016-May-23 15:33N 54°51' W 005°48'0 0.2
2016-May-23 14:33N 54°51' W 005°48'1211.9
2016-May-23 13:33N 54°57' W 005°30'1615.1
2016-May-23 12:30N 54°59' W 005°03'2 1.8
2016-May-23 11:33N 54°58' W 005°01'1010.1
2016-May-23 10:33N 54°59' W 005°18'1817.2
2016-May-23 09:30N 54°52' W 005°47'1 0.9
2016-May-23 08:33N 54°51' W 005°48'1212.4
2016-May-23 07:33N 54°57' W 005°29'1514.5
2016-May-23 06:32N 54°59' W 005°03'2 2.3
2016-May-23 05:33N 54°58' W 005°01'5 4.9
2016-May-23 04:28N 55°02' W 005°07'1819.6
2016-May-23 03:33N 54°54' W 005°36'8 7.5
2016-May-23 02:33N 54°51' W 005°48'0 0.0
2016-May-23 01:33N 54°51' W 005°48'0 0.0
2016-May-23 00:33N 54°51' W 005°48'5 4.7
2016-May-22 23:33N 54°53' W 005°41'1616.1
2016-May-22 22:33N 55°00' W 005°16'5 2.6
2016-May-22 20:30N 55°02' W 005°07'1819.3
2016-May-22 19:33N 54°54' W 005°36'8 7.7
2016-May-22 18:33N 54°51' W 005°48'0 0.0
2016-May-22 17:33N 54°51' W 005°48'1312.6
2016-May-22 16:33N 54°57' W 005°29'1515.0
2016-May-22 15:33N 54°59' W 005°03'2 1.5
2016-May-22 14:31N 54°58' W 005°01'5 4.8
2016-May-22 13:29N 55°02' W 005°06'1819.3
2016-May-22 12:33N 54°54' W 005°35'8 8.0
2016-May-22 11:31N 54°51' W 005°48'0 0.0
2016-May-22 10:33N 54°51' W 005°48'0 0.0
2016-May-22 09:33N 54°51' W 005°48'0 0.0
2016-May-22 08:33N 54°51' W 005°48'1212.5
2016-May-22 07:33N 54°57' W 005°29'1514.3
2016-May-22 06:30N 54°59' W 005°03'2 1.8
2016-May-22 05:33N 54°58' W 005°01'0 0.0
2016-May-22 04:33N 54°58' W 005°01'0 0.0
2016-May-22 03:33N 54°58' W 005°01'0 0.0
2016-May-22 02:33N 54°58' W 005°01'0 0.0
2016-May-22 01:21N 54°58' W 005°01'0 0.0
2016-May-22 00:27N 54°58' W 005°01'0 0.0
2016-May-21 23:30N 54°58' W 005°01'0 0.0
2016-May-21 21:27N 54°58' W 005°01'1213.1
2016-May-21 20:33N 54°58' W 005°22'1716.6
2016-May-21 19:34N 54°51' W 005°48'0 0.0
2016-May-21 18:34N 54°51' W 005°48'0 0.0
2016-May-21 17:34N 54°51' W 005°48'1312.7
2016-May-21 16:33N 54°57' W 005°29'1515.0
2016-May-21 15:33N 54°59' W 005°03'2 1.7
2016-May-21 14:32N 54°58' W 005°01'1111.2
2016-May-21 13:33N 54°59' W 005°20'1816.7
2016-May-21 12:30N 54°52' W 005°48'1 0.7
2016-May-21 11:31N 54°51' W 005°48'1213.0
2016-May-21 10:33N 54°57' W 005°29'1514.5
2016-May-21 09:31N 54°59' W 005°03'2 1.7
2016-May-21 08:33N 54°58' W 005°01'10 9.6
2016-May-21 07:33N 54°59' W 005°18'1716.9
2016-May-21 06:33N 54°52' W 005°45'2 2.3
2016-May-21 05:29N 54°51' W 005°48'4 4.9
2016-May-21 04:34N 54°53' W 005°41'1917.9
2016-May-21 03:31N 55°01' W 005°12'7 7.6
2016-May-21 02:33N 54°58' W 005°01'0 0.0
2016-May-21 01:33N 54°58' W 005°01'5 5.0
2016-May-21 00:34N 55°02' W 005°06'1818.3
2016-May-20 23:33N 54°54' W 005°36'8 7.7
2016-May-20 22:33N 54°51' W 005°48'0 0.0
2016-May-20 21:30N 54°51' W 005°48'5 5.7
2016-May-20 20:33N 54°54' W 005°40'1615.8
2016-May-20 19:33N 55°01' W 005°15'  
Track history (hours):
 
Tides and Currents Weather Stations Pressure Air Temp Water Temp Dewpoint Dewpoint Depression Visibility Wind Speed Wind Dir Waves Ship Positions

European Causeway

Operator: P & O Irish Sea

Last reported at 2016-May-30 19:33 UTC. Time now 2016-May-30 20:25 UTC.
Position N 55°00' W 005°16'.

Length 165 m; draft 5.5 m.

Type: Passenger vessel. MMSI: 311027000.

Date/timePositionNaut miles runAvg speedWind from/ knotsBaromVisibWave heightAir tempDewpointWater temp
2016-May-30 19:33N 55°00' W 005°16'9 8.9
2016-May-30 18:33N 54°58' W 005°01'0 0.0
2016-May-30 17:34N 54°58' W 005°01'1212.4
2016-May-30 16:33N 54°58' W 005°23'1616.0
2016-May-30 15:33N 54°51' W 005°48'0 0.0
2016-May-30 14:33N 54°51' W 005°48'1211.9
2016-May-30 13:34N 54°57' W 005°30'1515.1
2016-May-30 12:33N 54°60' W 005°04'3 2.6
2016-May-30 11:34N 54°58' W 005°01'1110.7
2016-May-30 10:33N 54°59' W 005°20'1817.7
2016-May-30 09:33N 54°51' W 005°48'0 0.4
2016-May-30 08:32N 54°51' W 005°48'1211.8
2016-May-30 07:33N 54°57' W 005°30'1515.4
2016-May-30 06:33N 55°01' W 005°04'4 3.5
2016-May-30 05:31N 54°58' W 005°01'5 4.9
2016-May-30 04:29N 55°02' W 005°07'1617.0
2016-May-30 03:33N 54°55' W 005°32'1010.2
2016-May-30 02:34N 54°51' W 005°48'0 0.0
2016-May-30 01:33N 54°51' W 005°48'0 0.0
2016-May-30 00:33N 54°51' W 005°48'7 7.1
2016-May-29 23:34N 54°55' W 005°37'2019.9
2016-May-29 22:33N 55°00' W 005°04'3 3.1
2016-May-29 21:33N 54°58' W 005°01'1313.3
2016-May-29 20:33N 54°58' W 005°24'1515.0
2016-May-29 19:33N 54°51' W 005°48'0 0.0
2016-May-29 18:33N 54°51' W 005°48'9 9.3
2016-May-29 17:33N 54°42' W 005°44'7 7.2
2016-May-29 16:34N 54°37' W 005°54'0 0.0
2016-May-29 15:34N 54°37' W 005°54'0 0.0
2016-May-29 14:31N 54°37' W 005°54'0 0.0
2016-May-29 11:19N 54°37' W 005°54'0 0.0
2016-May-29 10:19N 54°37' W 005°54'0 0.0
2016-May-29 09:33N 54°37' W 005°54'0 0.0
2016-May-29 08:33N 54°37' W 005°54'0 0.0
2016-May-29 07:33N 54°37' W 005°54'0 0.0
2016-May-29 00:33N 54°37' W 005°54'0 0.0
2016-May-28 23:33N 54°37' W 005°54'0 0.0
2016-May-28 22:33N 54°37' W 005°54'0 0.0
2016-May-28 21:33N 54°37' W 005°54'0 0.0
2016-May-28 20:33N 54°37' W 005°54'0 0.0
2016-May-28 19:33N 54°37' W 005°54'0 0.0
2016-May-28 18:08N 54°37' W 005°54'0 0.0
2016-May-28 17:30N 54°37' W 005°54'0 0.0
2016-May-28 16:28N 54°37' W 005°54'0 0.0
2016-May-28 15:33N 54°37' W 005°54'0 0.0
2016-May-28 14:32N 54°37' W 005°54'0 0.0
2016-May-28 13:33N 54°37' W 005°54'0 0.0
2016-May-28 12:17N 54°37' W 005°54'0 0.0
2016-May-28 11:30N 54°37' W 005°54'0 0.0
2016-May-28 10:30N 54°37' W 005°54'0 0.0
2016-May-28 09:30N 54°37' W 005°54'0 0.0
2016-May-28 08:32N 54°37' W 005°54'0 0.0
2016-May-28 07:33N 54°37' W 005°54'1212.0
2016-May-28 06:34N 54°46' W 005°39'7 7.3
2016-May-28 05:34N 54°51' W 005°48'5 4.7
2016-May-28 04:34N 54°53' W 005°41'2020.0
2016-May-28 03:33N 55°01' W 005°09'6 6.0
2016-May-28 02:34N 54°58' W 005°01'0 0.0
2016-May-28 01:33N 54°58' W 005°01'6 6.0
2016-May-28 00:33N 55°01' W 005°09'2019.5
2016-May-27 23:33N 54°53' W 005°40'5 5.0
2016-May-27 22:34N 54°51' W 005°48'0 0.0
2016-May-27 21:34N 54°51' W 005°48'4 4.0
2016-May-27 20:34N 54°53' W 005°42'1817.5
2016-May-27 19:33N 55°00' W 005°14'8 7.4
2016-May-27 18:29N 54°58' W 005°01'0 0.0
2016-May-27 17:33N 54°58' W 005°01'1111.2
2016-May-27 16:34N 54°58' W 005°20'1717.1
2016-May-27 15:33N 54°51' W 005°48'0 0.4
2016-May-27 14:34N 54°51' W 005°48'1716.6
2016-May-27 13:34N 54°59' W 005°22'1211.2
2016-May-27 12:28N 54°58' W 005°01'0 0.0
2016-May-27 11:31N 54°58' W 005°01'9 9.7
2016-May-27 10:33N 54°59' W 005°17'1818.3
2016-May-27 09:33N 54°52' W 005°47'1 1.2
2016-May-27 08:33N 54°51' W 005°48'1413.7
2016-May-27 07:33N 54°58' W 005°27'1514.3
2016-May-27 06:30N 54°58' W 005°01'0 0.0
2016-May-27 05:33N 54°58' W 005°01'5 4.9
2016-May-27 04:34N 55°01' W 005°06'1818.0
2016-May-27 03:33N 54°54' W 005°35'8 8.0
2016-May-27 02:33N 54°51' W 005°48'0 0.0
2016-May-27 01:33N 54°51' W 005°48'5 4.8
2016-May-27 00:33N 54°54' W 005°41'1717.0
2016-May-26 23:33N 55°01' W 005°14'8 7.8
2016-May-26 22:31N 54°58' W 005°01'5 2.5
2016-May-26 20:29N 55°01' W 005°07'1718.7
2016-May-26 19:33N 54°54' W 005°34'8 7.9
2016-May-26 18:30N 54°51' W 005°48'0 0.0
2016-May-26 17:34N 54°51' W 005°48'1514.8
2016-May-26 16:33N 54°58' W 005°25'1413.9
2016-May-26 15:33N 54°58' W 005°01'0 0.0
2016-May-26 14:33N 54°58' W 005°01'1212.1
2016-May-26 13:34N 54°58' W 005°22'1716.5
2016-May-26 12:33N 54°51' W 005°48'0 0.0
2016-May-26 11:33N 54°51' W 005°48'1515.1
2016-May-26 10:33N 54°58' W 005°25'1413.4
2016-May-26 09:33N 54°58' W 005°01'0 0.0
2016-May-26 08:33N 54°58' W 005°01'1110.6
2016-May-26 07:34N 54°58' W 005°19'1817.3
2016-May-26 06:32N 54°51' W 005°48'1 0.7
2016-May-26 05:32N 54°51' W 005°48'6 6.3
2016-May-26 04:33N 54°54' W 005°39'2019.7
2016-May-26 03:33N 55°02' W 005°07'5 4.9
2016-May-26 02:30N 54°58' W 005°01'0 0.0
2016-May-26 01:33N 54°58' W 005°01'6 5.9
2016-May-26 00:34N 55°02' W 005°09'1616.1
2016-May-25 23:34N 54°55' W 005°34'9 8.6
2016-May-25 22:32N 54°51' W 005°48'0 0.0
2016-May-25 21:32N 54°51' W 005°48'4 4.2
2016-May-25 20:33N 54°53' W 005°42'1616.3
2016-May-25 19:33N 55°01' W 005°17'9 8.8
2016-May-25 18:29N 54°58' W 005°01'0 0.0
2016-May-25 17:34N 54°58' W 005°01'1010.3
2016-May-25 16:33N 54°58' W 005°19'1817.8
2016-May-25 15:33N 54°52' W 005°47'1 0.9
2016-May-25 14:33N 54°51' W 005°48'1312.6
2016-May-25 13:33N 54°57' W 005°29'1515.1
2016-May-25 12:33N 54°59' W 005°02'1 1.4
2016-May-25 11:33N 54°58' W 005°01'1010.0
2016-May-25 10:33N 54°59' W 005°18'1717.0
2016-May-25 09:33N 54°52' W 005°46'2 1.8
2016-May-25 08:32N 54°51' W 005°48'1212.7
2016-May-25 07:33N 54°57' W 005°29'1514.5
2016-May-25 06:31N 54°59' W 005°03'2 1.6
2016-May-25 05:31N 54°58' W 005°01'5 5.4
2016-May-25 04:30N 55°02' W 005°08'1717.9
2016-May-25 03:34N 54°54' W 005°34'8 8.2
2016-May-25 02:31N 54°51' W 005°48'0 0.0
2016-May-25 01:28N 54°51' W 005°48'4 4.7
2016-May-25 00:33N 54°53' W 005°42'1616.4
2016-May-24 23:33N 55°00' W 005°16'9 9.0
2016-May-24 22:33N 54°58' W 005°01'5 2.4
2016-May-24 20:31N 55°02' W 005°06'1819.2
2016-May-24 19:33N 54°54' W 005°35'8 7.7
2016-May-24 18:33N 54°51' W 005°48'0 0.0
2016-May-24 17:33N 54°51' W 005°48'1414.3
2016-May-24 16:33N 54°58' W 005°26'1414.3
2016-May-24 15:33N 54°58' W 005°01'0 0.1
2016-May-24 14:33N 54°58' W 005°01'1111.0
2016-May-24 13:33N 54°58' W 005°20'1717.3
2016-May-24 12:33N 54°51' W 005°48'1 0.5
2016-May-24 11:34N 54°51' W 005°48'1312.5
2016-May-24 10:33N 54°57' W 005°29'1514.8
2016-May-24 09:32N 54°59' W 005°03'2 1.7
2016-May-24 08:33N 54°58' W 005°01'10 9.8
2016-May-24 07:33N 54°58' W 005°18'1818.1
2016-May-24 06:33N 54°52' W 005°47'1 1.0
2016-May-24 05:32N 54°51' W 005°48'6 5.6
2016-May-24 04:34N 54°54' W 005°40'1818.0
2016-May-24 03:33N 55°01' W 005°11'7 6.8
2016-May-24 02:31N 54°58' W 005°01'0 0.0
2016-May-24 01:28N 54°58' W 005°01'5 5.8
2016-May-24 00:33N 55°02' W 005°07'1817.5
2016-May-23 23:33N 54°54' W 005°35'8 8.0
2016-May-23 22:32N 54°51' W 005°48'0 0.0
2016-May-23 21:29N 54°51' W 005°48'4 4.7
2016-May-23 20:33N 54°54' W 005°42'1716.8
2016-May-23 19:33N 55°00' W 005°16'9 8.8
2016-May-23 18:34N 54°58' W 005°01'0 0.0
2016-May-23 17:33N 54°58' W 005°01'10 9.8
2016-May-23 16:33N 54°59' W 005°18'1918.7
2016-May-23 15:33N 54°51' W 005°48'0 0.2
2016-May-23 14:33N 54°51' W 005°48'1211.9
2016-May-23 13:33N 54°57' W 005°30'1615.1
2016-May-23 12:30N 54°59' W 005°03'2 1.8
2016-May-23 11:33N 54°58' W 005°01'1010.1
2016-May-23 10:33N 54°59' W 005°18'1817.2
2016-May-23 09:30N 54°52' W 005°47'1 0.9
2016-May-23 08:33N 54°51' W 005°48'1212.4
2016-May-23 07:33N 54°57' W 005°29'1514.5
2016-May-23 06:32N 54°59' W 005°03'2 2.3
2016-May-23 05:33N 54°58' W 005°01'5 4.9
2016-May-23 04:28N 55°02' W 005°07'1819.6
2016-May-23 03:33N 54°54' W 005°36'8 7.5
2016-May-23 02:33N 54°51' W 005°48'0 0.0
2016-May-23 01:33N 54°51' W 005°48'0 0.0
2016-May-23 00:33N 54°51' W 005°48'5 4.7
2016-May-22 23:33N 54°53' W 005°41'1616.1
2016-May-22 22:33N 55°00' W 005°16'5 2.6
2016-May-22 20:30N 55°02' W 005°07'1819.3
2016-May-22 19:33N 54°54' W 005°36'8 7.7
2016-May-22 18:33N 54°51' W 005°48'0 0.0
2016-May-22 17:33N 54°51' W 005°48'1312.6
2016-May-22 16:33N 54°57' W 005°29'1515.0
2016-May-22 15:33N 54°59' W 005°03'2 1.5
2016-May-22 14:31N 54°58' W 005°01'5 4.8
2016-May-22 13:29N 55°02' W 005°06'1819.3
2016-May-22 12:33N 54°54' W 005°35'8 8.0
2016-May-22 11:31N 54°51' W 005°48'0 0.0
2016-May-22 10:33N 54°51' W 005°48'0 0.0
2016-May-22 09:33N 54°51' W 005°48'0 0.0
2016-May-22 08:33N 54°51' W 005°48'1212.5
2016-May-22 07:33N 54°57' W 005°29'1514.3
2016-May-22 06:30N 54°59' W 005°03'2 1.8
2016-May-22 05:33N 54°58' W 005°01'0 0.0
2016-May-22 04:33N 54°58' W 005°01'0 0.0
2016-May-22 03:33N 54°58' W 005°01'0 0.0
2016-May-22 02:33N 54°58' W 005°01'0 0.0
2016-May-22 01:21N 54°58' W 005°01'0 0.0
2016-May-22 00:27N 54°58' W 005°01'0 0.0
2016-May-21 23:30N 54°58' W 005°01'0 0.0
2016-May-21 21:27N 54°58' W 005°01'1213.1
2016-May-21 20:33N 54°58' W 005°22'1716.6
2016-May-21 19:34N 54°51' W 005°48'0 0.0
2016-May-21 18:34N 54°51' W 005°48'0 0.0
2016-May-21 17:34N 54°51' W 005°48'1312.7
2016-May-21 16:33N 54°57' W 005°29'1515.0
2016-May-21 15:33N 54°59' W 005°03'2 1.7
2016-May-21 14:32N 54°58' W 005°01'1111.2
2016-May-21 13:33N 54°59' W 005°20'1816.7
2016-May-21 12:30N 54°52' W 005°48'1 0.7
2016-May-21 11:31N 54°51' W 005°48'1213.0
2016-May-21 10:33N 54°57' W 005°29'1514.5
2016-May-21 09:31N 54°59' W 005°03'2 1.7
2016-May-21 08:33N 54°58' W 005°01'10 9.6
2016-May-21 07:33N 54°59' W 005°18'1716.9
2016-May-21 06:33N 54°52' W 005°45'2 2.3
2016-May-21 05:29N 54°51' W 005°48'4 4.9
2016-May-21 04:34N 54°53' W 005°41'1917.9
2016-May-21 03:31N 55°01' W 005°12'7 7.6
2016-May-21 02:33N 54°58' W 005°01'0 0.0
2016-May-21 01:33N 54°58' W 005°01'5 5.0
2016-May-21 00:34N 55°02' W 005°06'1818.3
2016-May-20 23:33N 54°54' W 005°36'8 7.7
2016-May-20 22:33N 54°51' W 005°48'0 0.0
2016-May-20 21:30N 54°51' W 005°48'5 5.7
2016-May-20 20:33N 54°54' W 005°40'1615.8
2016-May-20 19:33N 55°01' W 005°15'  

Dump ship's entire track history